Time;durP1;ratioP1;P1;durP2;ratioP2;P2;SDS_P1;SDS_P2;PMS_P1;PMS_P2;Temp;Humidity;BMP_temperature;BMP_pressure;BME280_temperature;BME280_humidity;BME280_pressure;Samples;Min_cycle;Max_cycle;Signal;HPM_P1;HPM_P2
2020/12/15 00:00:13;;;;;;;4.30;2.35;;;;;;;;;;5072313;28;20023;-80
2020/12/15 00:02:38;;;;;;;8.02;2.60;;;;;;;;;;5071829;28;20025;-80
2020/12/15 00:05:04;;;;;;;5.68;2.17;;;;;;;;;;5073117;28;20025;-80
2020/12/15 00:07:29;;;;;;;6.65;2.58;;;;;;;;;;5072586;28;20039;-80
2020/12/15 00:09:54;;;;;;;4.15;2.22;;;;;;;;;;5071078;28;20418;-80
2020/12/15 00:12:20;;;;;;;4.82;2.30;;;;;;;;;;5070826;28;20498;-80
2020/12/15 00:14:45;;;;;;;5.10;2.53;;;;;;;;;;5071689;28;20431;-79
2020/12/15 00:17:10;;;;;;;4.80;2.20;;;;;;;;;;5057708;28;20172;-80
2020/12/15 00:19:35;;;;;;;7.05;2.78;;;;;;;;;;5058809;28;20043;-80
2020/12/15 00:22:01;;;;;;;4.30;2.30;;;;;;;;;;5070845;28;20028;-80
2020/12/15 00:24:26;;;;;;;8.65;2.55;;;;;;;;;;5071291;28;20483;-81
2020/12/15 00:26:51;;;;;;;5.88;2.85;;;;;;;;;;5071133;28;20020;-81
2020/12/15 00:29:17;;;;;;;4.05;2.40;;;;;;;;;;5069148;28;20031;-81
2020/12/15 00:31:42;;;;;;;5.93;2.75;;;;;;;;;;5060932;28;20075;-81
2020/12/15 00:34:07;;;;;;;3.92;2.10;;;;;;;;;;5071492;28;20012;-81
2020/12/15 00:36:33;;;;;;;3.75;1.60;;;;;;;;;;5071041;28;20383;-80
2020/12/15 00:38:58;;;;;;;4.70;2.50;;;;;;;;;;5072293;28;20021;-81
2020/12/15 00:41:23;;;;;;;4.60;2.05;;;;;;;;;;5071105;28;20020;-80
2020/12/15 00:43:49;;;;;;;7.57;2.20;;;;;;;;;;5072480;28;20027;-80
2020/12/15 00:46:15;;;;;;;7.22;2.40;;;;;;;;;;5071108;28;20039;-81
2020/12/15 00:48:40;;;;;;;5.40;2.55;;;;;;;;;;5072273;28;20501;-80
2020/12/15 00:51:06;;;;;;;7.55;2.58;;;;;;;;;;5071083;28;20017;-80
2020/12/15 00:53:31;;;;;;;5.07;2.35;;;;;;;;;;5070852;28;20424;-80
2020/12/15 00:55:56;;;;;;;4.05;2.30;;;;;;;;;;5072668;28;20024;-80
2020/12/15 00:58:21;;;;;;;5.57;2.58;;;;;;;;;;5071000;28;20418;-80
2020/12/15 01:00:46;;;;;;;7.93;2.50;;;;;;;;;;5071855;28;20028;-80
2020/12/15 01:03:12;;;;;;;5.75;2.30;;;;;;;;;;5070559;28;20020;-80
2020/12/15 01:05:37;;;;;;;5.80;2.65;;;;;;;;;;5070497;28;20020;-81
2020/12/15 01:08:03;;;;;;;4.28;2.20;;;;;;;;;;5070812;28;20154;-81
2020/12/15 01:10:28;;;;;;;8.27;2.70;;;;;;;;;;5071680;28;20048;-80
2020/12/15 01:12:53;;;;;;;6.50;2.13;;;;;;;;;;5070542;28;20048;-81
2020/12/15 01:15:18;;;;;;;8.13;2.60;;;;;;;;;;5070462;28;20012;-81
2020/12/15 01:17:43;;;;;;;4.57;2.33;;;;;;;;;;5071305;28;20044;-81
2020/12/15 01:20:08;;;;;;;7.07;2.55;;;;;;;;;;5070513;28;20021;-81
2020/12/15 01:22:34;;;;;;;4.07;2.38;;;;;;;;;;5070012;28;20203;-81
2020/12/15 01:24:59;;;;;;;5.82;2.50;;;;;;;;;;5070828;28;20016;-81
2020/12/15 01:27:24;;;;;;;8.82;2.33;;;;;;;;;;5070260;28;20054;-80
2020/12/15 01:29:49;;;;;;;5.22;2.45;;;;;;;;;;5070437;28;20039;-79
2020/12/15 01:32:14;;;;;;;8.85;3.00;;;;;;;;;;5070060;28;20495;-81
2020/12/15 01:34:40;;;;;;;8.38;2.90;;;;;;;;;;5070145;28;20017;-81
2020/12/15 01:37:05;;;;;;;6.80;3.05;;;;;;;;;;5070327;28;20103;-81
2020/12/15 01:39:31;;;;;;;8.95;4.18;;;;;;;;;;5070233;28;20029;-81
2020/12/15 01:41:56;;;;;;;6.15;2.83;;;;;;;;;;5070170;28;20024;-81
2020/12/15 01:44:21;;;;;;;11.13;2.70;;;;;;;;;;5070115;28;20028;-81
2020/12/15 01:46:47;;;;;;;5.55;3.20;;;;;;;;;;5068271;28;20021;-81
2020/12/15 01:49:12;;;;;;;4.55;2.30;;;;;;;;;;5068959;28;20464;-81
2020/12/15 01:51:37;;;;;;;6.78;3.13;;;;;;;;;;5069581;28;20040;-81
2020/12/15 01:54:03;;;;;;;8.70;2.80;;;;;;;;;;5071496;28;20024;-81
2020/12/15 01:56:28;;;;;;;6.90;3.40;;;;;;;;;;5071290;28;20090;-80
2020/12/15 01:58:55;;;;;;;6.80;2.50;;;;;;;;;;5069804;28;20101;-80
2020/12/15 02:01:20;;;;;;;10.43;3.17;;;;;;;;;;5071729;28;20368;-81
2020/12/15 02:03:46;;;;;;;6.30;2.65;;;;;;;;;;5070081;28;20022;-81
2020/12/15 02:06:11;;;;;;;9.00;3.20;;;;;;;;;;5070424;28;20073;-80
2020/12/15 02:08:37;;;;;;;5.90;2.70;;;;;;;;;;5070130;28;20149;-80
2020/12/15 02:11:02;;;;;;;8.13;2.95;;;;;;;;;;5071591;28;20024;-81
2020/12/15 02:13:27;;;;;;;6.30;2.90;;;;;;;;;;5069722;28;20101;-81
2020/12/15 02:15:52;;;;;;;13.57;3.25;;;;;;;;;;5070100;28;20020;-81
2020/12/15 02:18:17;;;;;;;7.28;3.10;;;;;;;;;;5071464;28;20484;-81
2020/12/15 02:20:43;;;;;;;5.05;3.08;;;;;;;;;;5070811;28;20028;-81
2020/12/15 02:23:08;;;;;;;8.02;3.20;;;;;;;;;;5070202;28;20013;-80
2020/12/15 02:25:34;;;;;;;6.72;2.67;;;;;;;;;;5070250;28;20388;-80
2020/12/15 02:27:59;;;;;;;5.75;3.13;;;;;;;;;;5069607;28;20073;-80
2020/12/15 02:30:24;;;;;;;6.00;3.30;;;;;;;;;;5070300;28;20021;-80
2020/12/15 02:32:50;;;;;;;8.23;3.55;;;;;;;;;;5071177;28;20029;-80
2020/12/15 02:35:15;;;;;;;7.40;3.05;;;;;;;;;;5072947;28;20032;-80
2020/12/15 02:37:40;;;;;;;8.60;3.40;;;;;;;;;;5073590;28;20032;-81
2020/12/15 02:40:06;;;;;;;4.55;2.58;;;;;;;;;;5073473;28;20016;-81
2020/12/15 02:42:31;;;;;;;9.57;3.30;;;;;;;;;;5073446;28;20375;-81
2020/12/15 02:44:57;;;;;;;8.20;3.10;;;;;;;;;;5073464;28;20025;-80
2020/12/15 02:47:22;;;;;;;8.63;3.03;;;;;;;;;;5074618;28;20141;-80
2020/12/15 02:49:47;;;;;;;4.78;2.72;;;;;;;;;;5073186;28;20471;-81
2020/12/15 02:52:12;;;;;;;7.28;3.03;;;;;;;;;;5073126;28;20471;-80
2020/12/15 02:54:39;;;;;;;7.15;3.40;;;;;;;;;;5073187;28;20023;-80
2020/12/15 02:57:04;;;;;;;8.00;3.22;;;;;;;;;;5072802;28;20017;-80
2020/12/15 02:59:30;;;;;;;6.32;3.22;;;;;;;;;;5073033;28;20024;-80
2020/12/15 03:01:55;;;;;;;5.65;3.40;;;;;;;;;;5073042;28;20027;-80
2020/12/15 03:04:20;;;;;;;7.95;3.05;;;;;;;;;;5073232;28;20428;-80
2020/12/15 03:06:45;;;;;;;8.63;3.40;;;;;;;;;;5074233;28;20019;-81
2020/12/15 03:09:11;;;;;;;6.00;3.08;;;;;;;;;;5073656;28;20012;-81
2020/12/15 03:11:36;;;;;;;7.32;2.97;;;;;;;;;;5074366;28;20055;-81
2020/12/15 03:14:02;;;;;;;5.15;2.90;;;;;;;;;;5073949;28;20016;-80
2020/12/15 03:16:27;;;;;;;9.95;3.58;;;;;;;;;;5072759;28;20040;-80
2020/12/15 03:18:52;;;;;;;7.15;3.33;;;;;;;;;;5072185;28;20379;-81
2020/12/15 03:21:20;;;;;;;8.82;2.97;;;;;;;;;;5072983;28;20009;-80
2020/12/15 03:23:45;;;;;;;9.73;3.47;;;;;;;;;;5073957;28;20411;-80
2020/12/15 03:26:10;;;;;;;6.47;2.95;;;;;;;;;;5072439;28;20052;-80
2020/12/15 03:28:35;;;;;;;5.60;3.40;;;;;;;;;;5072621;28;20016;-80
2020/12/15 03:31:01;;;;;;;12.95;3.55;;;;;;;;;;5073754;28;20806;-81
2020/12/15 03:33:26;;;;;;;6.40;3.45;;;;;;;;;;5072082;28;20017;-81
2020/12/15 03:35:51;;;;;;;6.07;4.15;;;;;;;;;;5073486;28;20020;-81
2020/12/15 03:38:16;;;;;;;6.35;3.30;;;;;;;;;;5074212;28;20092;-81
2020/12/15 03:40:42;;;;;;;9.57;3.28;;;;;;;;;;5073768;28;20384;-80
2020/12/15 03:43:07;;;;;;;6.00;3.80;;;;;;;;;;5073207;28;20020;-80
2020/12/15 03:45:32;;;;;;;10.13;4.20;;;;;;;;;;5072382;28;20099;-80
2020/12/15 03:47:58;;;;;;;6.13;3.45;;;;;;;;;;5071289;28;20025;-81
2020/12/15 03:50:23;;;;;;;6.57;3.75;;;;;;;;;;5072273;28;20016;-80
2020/12/15 03:52:48;;;;;;;6.18;3.35;;;;;;;;;;5071732;28;20027;-79
2020/12/15 03:55:13;;;;;;;6.43;3.78;;;;;;;;;;5073169;28;20021;-81
2020/12/15 03:57:38;;;;;;;10.55;4.38;;;;;;;;;;5072087;28;20107;-81
2020/12/15 04:00:04;;;;;;;6.47;3.30;;;;;;;;;;5071449;28;20032;-80
2020/12/15 04:02:29;;;;;;;7.25;3.65;;;;;;;;;;5071685;28;20162;-80
2020/12/15 04:04:55;;;;;;;8.10;3.80;;;;;;;;;;5071367;28;20077;-80
2020/12/15 04:07:20;;;;;;;6.25;3.25;;;;;;;;;;5072890;28;20467;-80
2020/12/15 04:09:45;;;;;;;6.55;3.38;;;;;;;;;;5071772;28;20024;-80
2020/12/15 04:12:12;;;;;;;6.35;3.17;;;;;;;;;;5071529;28;20040;-81
2020/12/15 04:14:37;;;;;;;6.35;3.45;;;;;;;;;;5071442;28;20531;-81
2020/12/15 04:17:02;;;;;;;4.78;2.72;;;;;;;;;;5072352;28;20115;-81
2020/12/15 04:19:28;;;;;;;6.75;2.97;;;;;;;;;;5071599;28;20364;-81
2020/12/15 04:21:53;;;;;;;8.15;3.40;;;;;;;;;;5071493;28;20019;-81
2020/12/15 04:24:18;;;;;;;6.10;2.67;;;;;;;;;;5071257;28;20017;-81
2020/12/15 04:26:43;;;;;;;5.45;3.15;;;;;;;;;;5071633;28;20546;-81
2020/12/15 04:29:09;;;;;;;8.25;3.40;;;;;;;;;;5072520;28;20016;-81
2020/12/15 04:31:34;;;;;;;9.10;3.58;;;;;;;;;;5070727;28;20028;-81
2020/12/15 04:33:59;;;;;;;9.73;3.72;;;;;;;;;;5070749;28;20471;-81
2020/12/15 04:36:24;;;;;;;7.85;3.83;;;;;;;;;;5072013;28;20092;-81
2020/12/15 04:38:50;;;;;;;10.10;3.40;;;;;;;;;;5072434;28;20025;-81
2020/12/15 04:41:15;;;;;;;5.00;3.38;;;;;;;;;;5071103;28;20028;-81
2020/12/15 04:43:41;;;;;;;6.05;2.95;;;;;;;;;;5072546;28;20039;-80
2020/12/15 04:46:07;;;;;;;7.80;3.33;;;;;;;;;;5070901;28;20020;-80
2020/12/15 04:48:35;;;;;;;7.60;3.60;;;;;;;;;;5071080;28;20047;-81
2020/12/15 04:51:00;;;;;;;5.53;3.22;;;;;;;;;;5072526;28;20021;-81
2020/12/15 04:53:26;;;;;;;5.38;3.47;;;;;;;;;;5070430;28;20545;-81
2020/12/15 04:55:54;;;;;;;8.00;3.80;;;;;;;;;;5070657;28;20078;-81
2020/12/15 04:58:20;;;;;;;6.05;4.07;;;;;;;;;;5070145;28;20501;-80
2020/12/15 05:00:45;;;;;;;6.20;3.80;;;;;;;;;;5072340;28;20036;-80
2020/12/15 05:03:12;;;;;;;8.25;3.38;;;;;;;;;;5071163;28;20031;-80
2020/12/15 05:05:39;;;;;;;4.65;2.88;;;;;;;;;;5071962;28;20085;-80
2020/12/15 05:08:05;;;;;;;5.47;3.42;;;;;;;;;;5070666;28;20033;-81
2020/12/15 05:10:30;;;;;;;5.75;3.42;;;;;;;;;;5070588;28;20039;-80
2020/12/15 05:12:55;;;;;;;5.60;3.17;;;;;;;;;;5071991;28;20031;-81
2020/12/15 05:15:21;;;;;;;5.35;3.33;;;;;;;;;;5071958;28;20059;-81
2020/12/15 05:17:46;;;;;;;5.82;3.22;;;;;;;;;;5070402;28;20051;-81
2020/12/15 05:20:24;;;;;;;5.10;3.03;;;;;;;;;;5070289;28;20021;-81
2020/12/15 05:22:49;;;;;;;7.70;3.08;;;;;;;;;;5070394;28;20375;-81
2020/12/15 05:25:21;;;;;;;4.82;3.22;;;;;;;;;;5070566;28;20107;-81
2020/12/15 05:27:46;;;;;;;8.52;3.40;;;;;;;;;;5071634;28;20399;-81
2020/12/15 05:30:11;;;;;;;9.18;3.78;;;;;;;;;;5071626;28;20024;-80
2020/12/15 05:32:46;;;;;;;7.93;3.47;;;;;;;;;;5071684;28;20017;-80
2020/12/15 05:35:11;;;;;;;4.72;2.97;;;;;;;;;;5071633;28;20024;-80
2020/12/15 05:37:41;;;;;;;8.20;3.30;;;;;;;;;;5071100;28;20085;-81
2020/12/15 05:40:06;;;;;;;6.28;3.00;;;;;;;;;;5070242;28;20044;-80
2020/12/15 05:42:32;;;;;;;6.40;3.65;;;;;;;;;;5070478;28;20411;-80
2020/12/15 05:44:58;;;;;;;5.72;3.30;;;;;;;;;;5070481;28;20066;-81
2020/12/15 05:47:23;;;;;;;5.20;3.30;;;;;;;;;;5070331;28;20395;-81
2020/12/15 05:49:50;;;;;;;3.95;2.75;;;;;;;;;;5071412;28;20017;-80
2020/12/15 05:52:15;;;;;;;6.15;3.08;;;;;;;;;;5071635;28;20025;-81
2020/12/15 05:54:40;;;;;;;8.70;4.47;;;;;;;;;;5069896;28;20048;-81
2020/12/15 05:57:06;;;;;;;6.68;3.90;;;;;;;;;;5071449;28;20005;-81
2020/12/15 05:59:33;;;;;;;8.60;3.92;;;;;;;;;;5070204;28;20021;-81
2020/12/15 06:02:09;;;;;;;6.38;3.38;;;;;;;;;;5069687;28;20078;-81
2020/12/15 06:04:36;;;;;;;6.35;3.58;;;;;;;;;;5070191;28;20850;-80
2020/12/15 06:07:02;;;;;;;6.50;3.33;;;;;;;;;;5071241;28;20031;-80
2020/12/15 06:09:28;;;;;;;5.25;2.80;;;;;;;;;;5071732;28;20471;-81
2020/12/15 06:11:54;;;;;;;8.32;3.55;;;;;;;;;;5075292;28;20051;-81
2020/12/15 06:14:19;;;;;;;5.45;3.20;;;;;;;;;;5075100;28;20035;-80
2020/12/15 06:16:44;;;;;;;7.88;3.38;;;;;;;;;;5107692;28;20050;-80
2020/12/15 06:19:10;;;;;;;6.43;3.00;;;;;;;;;;5074938;28;20027;-81
2020/12/15 06:21:37;;;;;;;5.85;3.20;;;;;;;;;;5075147;28;20028;-81
2020/12/15 06:24:06;;;;;;;6.65;3.42;;;;;;;;;;5074934;28;20471;-80
2020/12/15 06:26:32;;;;;;;7.38;3.53;;;;;;;;;;5073433;28;20017;-80
2020/12/15 06:28:59;;;;;;;5.60;3.63;;;;;;;;;;5074940;28;20455;-80
2020/12/15 06:31:24;;;;;;;6.22;3.50;;;;;;;;;;5074462;28;20020;-80
2020/12/15 06:33:53;;;;;;;9.77;3.58;;;;;;;;;;5074709;28;20032;-80
2020/12/15 06:36:25;;;;;;;7.38;2.95;;;;;;;;;;5074996;28;20474;-80
2020/12/15 06:38:51;;;;;;;5.40;2.92;;;;;;;;;;5073342;28;20012;-80
2020/12/15 06:41:22;;;;;;;6.97;3.78;;;;;;;;;;5074860;28;20024;-80
2020/12/15 06:43:48;;;;;;;6.38;3.30;;;;;;;;;;5074230;28;20101;-81
2020/12/15 06:46:13;;;;;;;6.25;3.65;;;;;;;;;;5074640;28;20051;-81
2020/12/15 06:48:38;;;;;;;7.22;3.70;;;;;;;;;;5074369;28;20028;-81
2020/12/15 06:51:04;;;;;;;5.93;3.78;;;;;;;;;;5074651;28;20024;-80
2020/12/15 06:53:29;;;;;;;10.48;3.90;;;;;;;;;;5073312;28;20422;-80
2020/12/15 06:56:02;;;;;;;6.45;3.80;;;;;;;;;;5074134;28;20487;-80
2020/12/15 06:58:27;;;;;;;6.72;3.83;;;;;;;;;;5079145;28;20019;-80
2020/12/15 07:00:52;;;;;;;5.88;3.05;;;;;;;;;;5076952;28;20476;-80
2020/12/15 07:03:32;;;;;;;7.63;4.47;;;;;;;;;;5073908;28;20027;-80
2020/12/15 07:06:06;;;;;;;6.40;3.75;;;;;;;;;;5072680;28;20097;-80
2020/12/15 07:08:31;;;;;;;5.70;3.10;;;;;;;;;;5073029;28;20016;-81
2020/12/15 07:10:56;;;;;;;5.05;3.35;;;;;;;;;;5072776;28;20427;-81
2020/12/15 07:13:21;;;;;;;5.53;3.47;;;;;;;;;;5072613;28;20024;-80
2020/12/15 07:15:46;;;;;;;10.52;3.45;;;;;;;;;;5072613;28;20478;-80
2020/12/15 07:18:12;;;;;;;5.97;3.42;;;;;;;;;;5073300;28;20024;-80
2020/12/15 07:20:38;;;;;;;10.88;3.85;;;;;;;;;;5071854;28;20025;-80
2020/12/15 07:23:03;;;;;;;5.32;3.33;;;;;;;;;;5065223;28;20376;-80
2020/12/15 07:25:28;;;;;;;5.45;4.07;;;;;;;;;;5058156;28;20017;-81
2020/12/15 07:27:53;;;;;;;5.95;3.50;;;;;;;;;;5065508;28;20052;-81
2020/12/15 07:30:20;;;;;;;4.20;2.92;;;;;;;;;;5060879;28;20039;-81
2020/12/15 07:32:48;;;;;;;4.78;3.05;;;;;;;;;;5053807;28;20157;-81
2020/12/15 07:35:17;;;;;;;4.43;2.67;;;;;;;;;;5064637;28;20013;-81
2020/12/15 07:37:43;;;;;;;4.53;2.00;;;;;;;;;;5067324;28;20104;-80
2020/12/15 07:40:09;;;;;;;4.03;2.15;;;;;;;;;;5060924;28;20093;-81
2020/12/15 07:42:34;;;;;;;5.03;2.53;;;;;;;;;;5063305;28;20040;-80
2020/12/15 07:45:01;;;;;;;3.90;2.60;;;;;;;;;;5063641;28;20024;-81
2020/12/15 07:47:26;;;;;;;4.85;2.15;;;;;;;;;;5071262;28;20410;-80
2020/12/15 07:49:55;;;;;;;6.97;2.85;;;;;;;;;;5089261;28;20024;-80
2020/12/15 07:52:27;;;;;;;5.97;2.55;;;;;;;;;;5072001;28;20360;-80
2020/12/15 07:54:58;;;;;;;7.30;3.20;;;;;;;;;;5071885;28;20013;-80
2020/12/15 07:57:25;;;;;;;6.37;3.43;;;;;;;;;;5072129;28;20071;-80
2020/12/15 07:59:50;;;;;;;10.55;3.50;;;;;;;;;;5069668;28;20016;-79
2020/12/15 08:02:18;;;;;;;9.80;3.17;;;;;;;;;;5071959;28;20012;-79
2020/12/15 08:04:44;;;;;;;4.53;3.13;;;;;;;;;;5067349;28;20021;-80
2020/12/15 08:07:10;;;;;;;4.95;3.25;;;;;;;;;;5063534;28;20032;-80
2020/12/15 08:09:36;;;;;;;4.60;3.03;;;;;;;;;;5064503;28;20031;-80
2020/12/15 08:12:02;;;;;;;7.03;3.33;;;;;;;;;;5069269;28;20120;-80
2020/12/15 08:14:28;;;;;;;5.57;3.47;;;;;;;;;;5071899;28;20023;-81
2020/12/15 08:16:53;;;;;;;5.47;3.17;;;;;;;;;;5060165;28;20024;-80
2020/12/15 08:19:23;;;;;;;4.85;2.55;;;;;;;;;;5071675;28;20027;-80
2020/12/15 08:21:50;;;;;;;5.80;3.13;;;;;;;;;;5056636;28;20025;-81
2020/12/15 08:24:21;;;;;;;6.97;2.97;;;;;;;;;;5073938;28;20073;-81
2020/12/15 08:26:47;;;;;;;4.70;2.83;;;;;;;;;;5062472;28;20029;-81
2020/12/15 08:29:12;;;;;;;4.60;2.72;;;;;;;;;;5060395;28;20094;-79
2020/12/15 08:31:38;;;;;;;4.22;2.67;;;;;;;;;;5073784;28;20024;-82
2020/12/15 08:34:13;;;;;;;5.30;2.70;;;;;;;;;;5068200;28;20468;-80
2020/12/15 08:36:40;;;;;;;4.07;2.45;;;;;;;;;;5071885;28;20731;-79
2020/12/15 08:39:06;;;;;;;8.15;2.80;;;;;;;;;;5054547;28;20037;-79
2020/12/15 08:41:32;;;;;;;7.38;2.55;;;;;;;;;;5081160;28;20016;-79
2020/12/15 08:43:57;;;;;;;8.68;3.15;;;;;;;;;;5070324;28;20753;-80
2020/12/15 08:46:22;;;;;;;7.00;2.92;;;;;;;;;;5058254;28;20012;-80
2020/12/15 08:48:48;;;;;;;5.70;2.50;;;;;;;;;;5063391;28;20059;-80
2020/12/15 08:51:14;;;;;;;4.75;2.78;;;;;;;;;;5059249;28;20023;-80
2020/12/15 08:53:40;;;;;;;7.82;2.78;;;;;;;;;;5063724;28;20025;-80
2020/12/15 08:56:11;;;;;;;6.57;2.58;;;;;;;;;;5067967;28;20024;-80
2020/12/15 08:58:36;;;;;;;7.00;2.80;;;;;;;;;;5073113;28;20091;-80
2020/12/15 09:01:02;;;;;;;6.55;2.80;;;;;;;;;;5074429;28;20111;-81
2020/12/15 09:03:27;;;;;;;4.25;2.58;;;;;;;;;;5069401;28;20237;-80
2020/12/15 09:05:53;;;;;;;5.07;3.17;;;;;;;;;;5072035;28;20021;-80
2020/12/15 09:08:19;;;;;;;7.32;2.85;;;;;;;;;;5065586;28;20017;-80
2020/12/15 09:10:45;;;;;;;4.28;2.67;;;;;;;;;;5077147;28;20027;-81
2020/12/15 09:13:10;;;;;;;5.78;2.90;;;;;;;;;;5073909;28;20048;-80
2020/12/15 09:15:45;;;;;;;4.78;2.92;;;;;;;;;;5070464;28;20020;-80
2020/12/15 09:18:12;;;;;;;8.40;3.17;;;;;;;;;;5070062;28;20100;-80
2020/12/15 09:20:38;;;;;;;6.35;2.83;;;;;;;;;;5070998;28;20096;-80
2020/12/15 09:23:03;;;;;;;6.03;3.03;;;;;;;;;;5072351;28;20159;-81
2020/12/15 09:25:28;;;;;;;6.18;2.65;;;;;;;;;;5068290;28;20017;-79
2020/12/15 09:27:54;;;;;;;4.18;2.53;;;;;;;;;;5103099;28;20016;-80
2020/12/15 09:30:19;;;;;;;4.85;2.70;;;;;;;;;;5061997;28;20009;-80
2020/12/15 09:32:44;;;;;;;9.02;2.47;;;;;;;;;;5071213;28;20028;-81
2020/12/15 09:35:10;;;;;;;6.07;2.92;;;;;;;;;;5061954;28;20074;-80
2020/12/15 09:37:35;;;;;;;6.32;3.58;;;;;;;;;;5073266;28;20047;-81
2020/12/15 09:40:01;;;;;;;4.90;3.15;;;;;;;;;;5074543;28;20818;-80
2020/12/15 09:42:27;;;;;;;4.38;2.83;;;;;;;;;;5079154;28;20023;-81
2020/12/15 09:44:52;;;;;;;5.25;3.35;;;;;;;;;;5070766;28;20108;-80
2020/12/15 09:47:17;;;;;;;3.70;2.72;;;;;;;;;;5075075;28;20024;-81
2020/12/15 09:49:42;;;;;;;7.40;2.83;;;;;;;;;;5070311;28;20066;-82
2020/12/15 09:52:08;;;;;;;4.78;2.88;;;;;;;;;;5073805;28;20028;-82
2020/12/15 09:54:33;;;;;;;5.60;3.65;;;;;;;;;;5074270;28;20024;-81
2020/12/15 09:56:58;;;;;;;8.88;3.42;;;;;;;;;;5072189;28;20394;-82
2020/12/15 09:59:23;;;;;;;6.88;3.28;;;;;;;;;;5070508;28;20442;-82
2020/12/15 10:01:49;;;;;;;6.90;3.50;;;;;;;;;;5064734;28;20038;-81
2020/12/15 10:04:14;;;;;;;9.02;3.22;;;;;;;;;;5058257;28;20021;-81
2020/12/15 10:06:40;;;;;;;5.20;2.90;;;;;;;;;;5064382;28;20021;-81
2020/12/15 10:09:05;;;;;;;5.05;2.45;;;;;;;;;;5071507;28;20098;-81
2020/12/15 10:11:30;;;;;;;7.20;2.90;;;;;;;;;;5070213;28;20020;-81
2020/12/15 10:13:56;;;;;;;6.40;3.50;;;;;;;;;;5068495;28;20074;-81
2020/12/15 10:16:21;;;;;;;6.53;3.08;;;;;;;;;;5072993;28;20009;-81
2020/12/15 10:18:47;;;;;;;5.53;3.22;;;;;;;;;;5072036;28;20040;-80
2020/12/15 10:21:15;;;;;;;5.80;3.28;;;;;;;;;;5074343;28;20039;-80
2020/12/15 10:23:40;;;;;;;6.80;3.10;;;;;;;;;;5066410;28;20059;-80
2020/12/15 10:26:06;;;;;;;5.85;3.10;;;;;;;;;;5061801;28;20064;-81
2020/12/15 10:28:31;;;;;;;5.15;3.20;;;;;;;;;;5070984;28;21044;-80
2020/12/15 10:30:57;;;;;;;5.22;3.22;;;;;;;;;;5067691;28;20025;-81
2020/12/15 10:33:22;;;;;;;4.35;2.95;;;;;;;;;;5076191;28;20467;-81
2020/12/15 10:35:48;;;;;;;7.38;3.42;;;;;;;;;;5070451;28;20004;-79
2020/12/15 10:38:13;;;;;;;5.63;2.70;;;;;;;;;;5067712;28;20044;-80
2020/12/15 10:40:39;;;;;;;6.38;2.90;;;;;;;;;;5061462;28;20082;-81
2020/12/15 10:43:04;;;;;;;4.82;3.05;;;;;;;;;;5071524;28;20028;-81
2020/12/15 10:45:29;;;;;;;4.30;3.05;;;;;;;;;;5072920;28;20025;-81
2020/12/15 10:47:55;;;;;;;5.47;3.30;;;;;;;;;;5057144;28;20096;-81
2020/12/15 10:50:20;;;;;;;5.80;3.08;;;;;;;;;;5064887;28;20036;-79
2020/12/15 10:52:45;;;;;;;7.65;3.25;;;;;;;;;;5064494;28;20373;-80
2020/12/15 10:55:10;;;;;;;9.18;2.95;;;;;;;;;;5066182;28;20016;-81
2020/12/15 10:57:36;;;;;;;5.13;3.22;;;;;;;;;;5061918;28;20024;-79
2020/12/15 11:00:03;;;;;;;8.30;3.47;;;;;;;;;;5064355;28;20112;-80
2020/12/15 11:02:28;;;;;;;5.05;2.97;;;;;;;;;;5057766;28;20384;-81
2020/12/15 11:04:53;;;;;;;6.65;3.00;;;;;;;;;;5068783;28;20021;-80
2020/12/15 11:07:19;;;;;;;5.85;3.33;;;;;;;;;;5067420;28;20106;-80
2020/12/15 11:09:44;;;;;;;11.43;3.63;;;;;;;;;;5071799;28;20032;-79
2020/12/15 11:12:09;;;;;;;8.30;3.53;;;;;;;;;;5061137;28;20113;-80
2020/12/15 11:14:34;;;;;;;8.75;3.55;;;;;;;;;;5055975;28;20041;-80
2020/12/15 11:17:00;;;;;;;8.45;3.60;;;;;;;;;;5064152;28;20039;-81
2020/12/15 11:19:25;;;;;;;9.23;3.70;;;;;;;;;;5072920;28;20044;-81
2020/12/15 11:21:51;;;;;;;7.55;4.72;;;;;;;;;;5061415;28;20052;-81
2020/12/15 11:24:16;;;;;;;13.05;4.38;;;;;;;;;;5070332;28;20021;-81
2020/12/15 11:26:41;;;;;;;7.45;4.30;;;;;;;;;;5070074;28;20032;-81
2020/12/15 11:29:06;;;;;;;7.95;4.65;;;;;;;;;;5065643;28;20464;-81
2020/12/15 11:31:32;;;;;;;7.32;4.60;;;;;;;;;;5064101;28;20083;-81
2020/12/15 11:33:57;;;;;;;11.30;5.60;;;;;;;;;;5069954;28;20032;-81
2020/12/15 11:36:23;;;;;;;10.70;5.10;;;;;;;;;;5066617;28;20472;-80
2020/12/15 11:38:49;;;;;;;11.07;5.53;;;;;;;;;;5068192;28;20464;-80
2020/12/15 11:41:14;;;;;;;8.73;4.63;;;;;;;;;;5064463;28;20020;-80
2020/12/15 11:43:39;;;;;;;11.02;5.00;;;;;;;;;;5069919;28;20028;-80
2020/12/15 11:46:04;;;;;;;8.05;4.88;;;;;;;;;;5069292;28;20021;-80
2020/12/15 11:48:29;;;;;;;10.02;5.55;;;;;;;;;;5068129;28;20036;-80
2020/12/15 11:50:55;;;;;;;10.60;5.15;;;;;;;;;;5065726;28;20106;-80
2020/12/15 11:53:20;;;;;;;10.32;5.55;;;;;;;;;;5057268;28;20020;-80
2020/12/15 11:55:45;;;;;;;10.20;5.72;;;;;;;;;;5061960;28;20025;-81
2020/12/15 11:58:10;;;;;;;12.75;5.90;;;;;;;;;;5072730;28;20518;-81
2020/12/15 12:00:36;;;;;;;8.82;5.05;;;;;;;;;;5067207;28;20048;-81
2020/12/15 12:03:01;;;;;;;8.27;4.47;;;;;;;;;;5062245;28;20024;-81
2020/12/15 12:05:27;;;;;;;8.27;4.38;;;;;;;;;;5074196;28;20036;-81
2020/12/15 12:07:52;;;;;;;11.00;4.22;;;;;;;;;;5060918;28;20090;-81
2020/12/15 12:10:18;;;;;;;7.25;4.93;;;;;;;;;;5065684;28;20444;-81
2020/12/15 12:12:43;;;;;;;7.30;4.60;;;;;;;;;;5058791;28;20115;-81
2020/12/15 12:15:08;;;;;;;11.05;4.97;;;;;;;;;;5062788;28;20462;-81
2020/12/15 12:17:33;;;;;;;8.13;5.00;;;;;;;;;;5061701;28;20029;-80
2020/12/15 12:19:58;;;;;;;5.82;4.45;;;;;;;;;;5064709;28;20032;-81
2020/12/15 12:22:24;;;;;;;8.20;5.35;;;;;;;;;;5070392;28;20025;-80
2020/12/15 12:24:49;;;;;;;7.72;5.15;;;;;;;;;;5070619;28;20089;-81
2020/12/15 12:27:14;;;;;;;8.25;5.38;;;;;;;;;;5066500;28;20028;-80
2020/12/15 12:29:40;;;;;;;10.80;6.18;;;;;;;;;;5058940;28;20032;-80
2020/12/15 12:32:05;;;;;;;12.52;5.50;;;;;;;;;;5076586;28;20027;-80
2020/12/15 12:34:30;;;;;;;8.73;5.60;;;;;;;;;;5059337;28;20013;-78
2020/12/15 12:36:55;;;;;;;7.28;5.43;;;;;;;;;;5055367;28;20020;-81
2020/12/15 12:39:20;;;;;;;10.10;5.65;;;;;;;;;;5068385;28;20035;-80
2020/12/15 12:41:52;;;;;;;10.18;6.10;;;;;;;;;;5057268;28;20357;-80
2020/12/15 12:44:18;;;;;;;12.73;7.45;;;;;;;;;;5073974;28;20036;-80
2020/12/15 12:46:46;;;;;;;10.68;6.82;;;;;;;;;;5059507;28;20055;-80
2020/12/15 12:49:12;;;;;;;11.15;6.45;;;;;;;;;;5062264;28;20032;-80
2020/12/15 12:51:37;;;;;;;8.70;5.32;;;;;;;;;;5053740;28;20046;-80
2020/12/15 12:54:02;;;;;;;12.77;5.75;;;;;;;;;;5054118;28;20756;-80
2020/12/15 12:56:27;;;;;;;8.32;5.50;;;;;;;;;;5066813;28;20037;-80
2020/12/15 12:58:52;;;;;;;8.13;5.20;;;;;;;;;;5067285;28;20022;-80
2020/12/15 13:01:22;;;;;;;9.00;5.47;;;;;;;;;;5065424;28;20012;-80
2020/12/15 13:03:47;;;;;;;10.60;6.15;;;;;;;;;;5063977;28;20008;-80
2020/12/15 13:06:12;;;;;;;11.38;6.43;;;;;;;;;;5067091;28;20159;-80
2020/12/15 13:08:37;;;;;;;10.13;5.82;;;;;;;;;;5061554;28;20028;-79
2020/12/15 13:11:02;;;;;;;11.52;6.28;;;;;;;;;;5072526;28;20016;-80
2020/12/15 13:13:28;;;;;;;9.23;6.25;;;;;;;;;;5055880;28;20049;-80
2020/12/15 13:15:53;;;;;;;7.97;5.95;;;;;;;;;;5056000;28;20023;-79
2020/12/15 13:18:18;;;;;;;10.13;6.15;;;;;;;;;;5060637;28;20059;-79
2020/12/15 13:20:43;;;;;;;11.73;6.68;;;;;;;;;;5074275;28;20470;-79
2020/12/15 13:23:08;;;;;;;9.90;7.00;;;;;;;;;;5064997;28;20058;-80
2020/12/15 13:25:33;;;;;;;11.98;6.93;;;;;;;;;;5057047;28;20044;-80
2020/12/15 13:27:59;;;;;;;11.25;6.72;;;;;;;;;;5060517;28;20033;-80
2020/12/15 13:30:24;;;;;;;17.05;12.43;;;;;;;;;;5065534;28;20060;-80
2020/12/15 13:32:49;;;;;;;11.15;6.40;;;;;;;;;;5066443;28;20024;-82
2020/12/15 13:35:14;;;;;;;11.30;6.55;;;;;;;;;;5058008;28;20013;-80
2020/12/15 13:37:40;;;;;;;11.52;6.93;;;;;;;;;;5070946;28;20020;-80
2020/12/15 13:40:05;;;;;;;10.07;6.53;;;;;;;;;;5058594;28;20013;-80
2020/12/15 13:42:31;;;;;;;11.68;6.63;;;;;;;;;;5060782;28;20031;-81
2020/12/15 13:44:56;;;;;;;11.88;6.53;;;;;;;;;;5064549;28;20017;-82
2020/12/15 13:47:21;;;;;;;14.68;9.05;;;;;;;;;;5061261;28;20171;-81
2020/12/15 13:49:50;;;;;;;9.82;7.72;;;;;;;;;;5063436;28;20019;-80
2020/12/15 13:52:15;;;;;;;9.10;6.43;;;;;;;;;;5063079;28;20027;-80
2020/12/15 13:54:40;;;;;;;14.75;6.25;;;;;;;;;;5068756;28;20019;-80
2020/12/15 13:57:05;;;;;;;12.98;6.88;;;;;;;;;;5069284;28;20020;-79
2020/12/15 13:59:30;;;;;;;11.05;6.82;;;;;;;;;;5066042;28;20017;-80
2020/12/15 14:01:56;;;;;;;11.10;6.22;;;;;;;;;;5080315;28;20023;-80
2020/12/15 14:04:21;;;;;;;11.65;6.43;;;;;;;;;;5058551;28;20055;-80
2020/12/15 14:06:46;;;;;;;9.13;6.65;;;;;;;;;;5061215;28;20032;-80
2020/12/15 14:09:12;;;;;;;13.23;7.10;;;;;;;;;;5051372;28;20541;-81
2020/12/15 14:11:38;;;;;;;12.60;7.25;;;;;;;;;;5057686;28;20364;-80
2020/12/15 14:14:03;;;;;;;10.90;7.00;;;;;;;;;;5051911;28;20418;-80
2020/12/15 14:16:29;;;;;;;11.20;6.88;;;;;;;;;;5060557;28;20017;-79
2020/12/15 14:18:54;;;;;;;11.85;7.65;;;;;;;;;;5059162;28;20020;-80
2020/12/15 14:21:19;;;;;;;16.58;8.05;;;;;;;;;;5054451;28;20043;-79
2020/12/15 14:23:44;;;;;;;11.80;7.88;;;;;;;;;;5053837;28;20029;-79
2020/12/15 14:26:10;;;;;;;13.30;8.73;;;;;;;;;;5059701;28;20024;-81
2020/12/15 14:28:36;;;;;;;16.60;8.65;;;;;;;;;;5051064;28;20028;-80
2020/12/15 14:31:02;;;;;;;15.57;9.68;;;;;;;;;;5056377;28;20024;-79